Castro Valley, California
Current Conditions -  °F | °C
As of 12:54 AM on Thursday 27 Nov 2014 (Local Time) from KHWD Reporting Station
Clear Clear  
Wind Chill: 50°   Ceiling: Unl
Heat Index: 50°   Visibility: 8mi
Dew Point: 46°   Wind: 6mph
Humidity: 86%   Direction: 80°E
Pressure: 30.18"   Gusts: NA
Location:  37.69°N, 122.08°W
Report Text: KHWD 270854Z AUTO 08005KT 8SM CLR 10/08 A3018 RMK AO2 SLP231 T01000078 58009
Loading
Personal Weather Stations






























Interactive Weather Map New forecast layout! Learn more

10-Day Weather Forecast

Advertisements
Track Severe Weather on mobile